Etusivu
METAR-TAF:

METAR-TAF

Lentoasemat :

Taylor County Airport

Medford, Wisconsin, Yhdysvallat

Leveyspiiri: 45-06-04N, Pituuspiiri: 090-18-12W, korkeus merenpinnasta: 448 m

Tämänhetkinen sää

Tämä raportti tehtiin 23 minuuttia sitten, kello 14.15 UTC
Tuuli 10 kn idästä/kaakosta puuskistuen 21 kn:hen
Lämpötila 7°C
Kosteus 100%
Ilmanpaine 1006 hPa
Näkyvyys: 6.4 km
Pilvistä 500 ft:n korkeudessa
utua

METAR: KMDZ 221415Z AUTO 11010G21KT 4SM BR OVC005 07/07 A2971 RMK AO2 T00740069 TSNO

Aika: 09:38 (14:38 UTC)


TAF: puuttuu

Säähavainnot ja -ennusteet yli 4000 lentoasemalta (METAR- ja TAF-raportit).

Käytössä olevat sääasemat on merkitty karttaan keltaisilla ja punaisilla pisteillä.

Aseta hiiri pisteen päälle nähdäksesi sääaseman nimen.

Klikkaa sitten nähdäksesi säähavainnot ja -ennusteet.

Kartan vaihtaminen: klikkaa mustalla rastilla varustettuja vihreitä pisteitä, niin voit zoomata sisään; viivalla varustettua vihreää pistettä, niin voit zoomata ulos tai vihreitä nuolia, niin pääset viereisille kartoille.


METAR-TAF: